sensor_id;sensor_type;location;lat;lon;timestamp;P1;durP1;ratioP1;P2;durP2;ratioP2
11034;SDS011;5571;48.110;-1.706;2023-07-20T00:00:28;7.35;;;3.33;;
11034;SDS011;5571;48.110;-1.706;2023-07-20T00:03:05;6.05;;;3.17;;
11034;SDS011;5571;48.110;-1.706;2023-07-20T00:05:41;6.85;;;2.97;;
11034;SDS011;5571;48.110;-1.706;2023-07-20T00:08:13;10.07;;;3.13;;
11034;SDS011;5571;48.110;-1.706;2023-07-20T00:10:39;9.85;;;3.20;;
11034;SDS011;5571;48.110;-1.706;2023-07-20T00:13:06;7.40;;;2.67;;
11034;SDS011;5571;48.110;-1.706;2023-07-20T00:15:31;5.05;;;2.60;;
11034;SDS011;5571;48.110;-1.706;2023-07-20T00:17:57;9.20;;;2.80;;
11034;SDS011;5571;48.110;-1.706;2023-07-20T00:20:23;36.53;;;21.02;;
11034;SDS011;5571;48.110;-1.706;2023-07-20T00:22:49;77.78;;;43.03;;
11034;SDS011;5571;48.110;-1.706;2023-07-20T00:25:16;31.80;;;20.42;;
11034;SDS011;5571;48.110;-1.706;2023-07-20T00:27:42;18.60;;;9.68;;
11034;SDS011;5571;48.110;-1.706;2023-07-20T00:30:07;12.25;;;6.35;;
11034;SDS011;5571;48.110;-1.706;2023-07-20T00:32:33;12.40;;;6.57;;
11034;SDS011;5571;48.110;-1.706;2023-07-20T00:34:59;14.88;;;4.20;;
11034;SDS011;5571;48.110;-1.706;2023-07-20T00:37:24;12.13;;;3.88;;
11034;SDS011;5571;48.110;-1.706;2023-07-20T00:39:50;8.38;;;3.50;;
11034;SDS011;5571;48.110;-1.706;2023-07-20T00:42:16;9.98;;;3.42;;
11034;SDS011;5571;48.110;-1.706;2023-07-20T00:44:42;8.75;;;3.08;;
11034;SDS011;5571;48.110;-1.706;2023-07-20T00:47:07;8.52;;;2.92;;
11034;SDS011;5571;48.110;-1.706;2023-07-20T00:49:33;11.90;;;3.03;;
11034;SDS011;5571;48.110;-1.706;2023-07-20T00:52:00;6.78;;;2.88;;
11034;SDS011;5571;48.110;-1.706;2023-07-20T00:54:28;10.23;;;2.97;;
11034;SDS011;5571;48.110;-1.706;2023-07-20T00:56:54;10.27;;;2.92;;
11034;SDS011;5571;48.110;-1.706;2023-07-20T00:59:20;8.88;;;2.90;;
11034;SDS011;5571;48.110;-1.706;2023-07-20T01:01:46;11.95;;;3.50;;
11034;SDS011;5571;48.110;-1.706;2023-07-20T01:04:12;5.85;;;2.78;;
11034;SDS011;5571;48.110;-1.706;2023-07-20T01:09:39;5.75;;;3.00;;
11034;SDS011;5571;48.110;-1.706;2023-07-20T01:14:37;9.40;;;3.10;;
11034;SDS011;5571;48.110;-1.706;2023-07-20T01:17:03;8.20;;;3.10;;
11034;SDS011;5571;48.110;-1.706;2023-07-20T01:19:29;6.93;;;3.15;;
11034;SDS011;5571;48.110;-1.706;2023-07-20T01:21:57;10.40;;;3.25;;
11034;SDS011;5571;48.110;-1.706;2023-07-20T01:27:36;7.55;;;3.10;;
11034;SDS011;5571;48.110;-1.706;2023-07-20T01:30:25;7.60;;;3.35;;
11034;SDS011;5571;48.110;-1.706;2023-07-20T01:32:59;15.43;;;2.90;;
11034;SDS011;5571;48.110;-1.706;2023-07-20T01:35:27;8.85;;;3.40;;
11034;SDS011;5571;48.110;-1.706;2023-07-20T01:37:54;8.82;;;3.47;;
11034;SDS011;5571;48.110;-1.706;2023-07-20T01:40:23;6.28;;;3.30;;
11034;SDS011;5571;48.110;-1.706;2023-07-20T01:42:50;9.13;;;3.35;;
11034;SDS011;5571;48.110;-1.706;2023-07-20T01:45:17;7.60;;;3.20;;
11034;SDS011;5571;48.110;-1.706;2023-07-20T01:47:43;5.45;;;2.88;;
11034;SDS011;5571;48.110;-1.706;2023-07-20T01:50:08;12.82;;;3.42;;
11034;SDS011;5571;48.110;-1.706;2023-07-20T01:52:34;11.88;;;3.22;;
11034;SDS011;5571;48.110;-1.706;2023-07-20T01:55:00;9.38;;;3.03;;
11034;SDS011;5571;48.110;-1.706;2023-07-20T01:57:25;8.43;;;3.17;;
11034;SDS011;5571;48.110;-1.706;2023-07-20T01:59:51;9.23;;;3.42;;
11034;SDS011;5571;48.110;-1.706;2023-07-20T02:02:17;8.32;;;3.70;;
11034;SDS011;5571;48.110;-1.706;2023-07-20T02:04:43;10.32;;;3.30;;
11034;SDS011;5571;48.110;-1.706;2023-07-20T02:07:09;8.68;;;3.55;;
11034;SDS011;5571;48.110;-1.706;2023-07-20T02:09:34;9.52;;;3.70;;
11034;SDS011;5571;48.110;-1.706;2023-07-20T02:12:00;6.47;;;3.90;;
11034;SDS011;5571;48.110;-1.706;2023-07-20T02:14:25;7.55;;;3.50;;
11034;SDS011;5571;48.110;-1.706;2023-07-20T02:16:51;5.35;;;3.30;;
11034;SDS011;5571;48.110;-1.706;2023-07-20T02:19:17;9.35;;;3.40;;
11034;SDS011;5571;48.110;-1.706;2023-07-20T02:21:43;9.18;;;3.35;;
11034;SDS011;5571;48.110;-1.706;2023-07-20T02:24:09;6.85;;;3.22;;
11034;SDS011;5571;48.110;-1.706;2023-07-20T02:26:35;8.23;;;3.13;;
11034;SDS011;5571;48.110;-1.706;2023-07-20T02:29:00;11.48;;;4.03;;
11034;SDS011;5571;48.110;-1.706;2023-07-20T02:31:29;7.63;;;3.53;;
11034;SDS011;5571;48.110;-1.706;2023-07-20T02:33:55;9.15;;;3.50;;
11034;SDS011;5571;48.110;-1.706;2023-07-20T02:36:20;5.95;;;3.33;;
11034;SDS011;5571;48.110;-1.706;2023-07-20T02:38:46;10.27;;;4.07;;
11034;SDS011;5571;48.110;-1.706;2023-07-20T02:41:13;7.88;;;3.47;;
11034;SDS011;5571;48.110;-1.706;2023-07-20T02:43:38;6.15;;;3.35;;
11034;SDS011;5571;48.110;-1.706;2023-07-20T02:46:04;7.32;;;3.85;;
11034;SDS011;5571;48.110;-1.706;2023-07-20T02:48:30;13.25;;;4.15;;
11034;SDS011;5571;48.110;-1.706;2023-07-20T02:50:55;8.75;;;4.22;;
11034;SDS011;5571;48.110;-1.706;2023-07-20T02:53:21;7.40;;;3.88;;
11034;SDS011;5571;48.110;-1.706;2023-07-20T02:55:46;9.65;;;3.65;;
11034;SDS011;5571;48.110;-1.706;2023-07-20T02:58:12;6.88;;;3.40;;
11034;SDS011;5571;48.110;-1.706;2023-07-20T03:00:38;9.90;;;3.65;;
11034;SDS011;5571;48.110;-1.706;2023-07-20T03:03:03;9.25;;;4.05;;
11034;SDS011;5571;48.110;-1.706;2023-07-20T03:05:29;8.18;;;3.70;;
11034;SDS011;5571;48.110;-1.706;2023-07-20T03:07:58;9.50;;;3.97;;
11034;SDS011;5571;48.110;-1.706;2023-07-20T03:10:24;8.05;;;3.50;;
11034;SDS011;5571;48.110;-1.706;2023-07-20T03:12:49;11.35;;;4.47;;
11034;SDS011;5571;48.110;-1.706;2023-07-20T03:15:15;10.27;;;3.97;;
11034;SDS011;5571;48.110;-1.706;2023-07-20T03:17:40;9.93;;;3.80;;
11034;SDS011;5571;48.110;-1.706;2023-07-20T03:20:06;10.60;;;3.47;;
11034;SDS011;5571;48.110;-1.706;2023-07-20T03:22:34;11.25;;;4.05;;
11034;SDS011;5571;48.110;-1.706;2023-07-20T03:25:00;8.55;;;3.97;;
11034;SDS011;5571;48.110;-1.706;2023-07-20T03:27:25;11.93;;;4.28;;
11034;SDS011;5571;48.110;-1.706;2023-07-20T03:29:51;6.57;;;4.28;;
11034;SDS011;5571;48.110;-1.706;2023-07-20T03:32:17;7.88;;;4.55;;
11034;SDS011;5571;48.110;-1.706;2023-07-20T03:34:42;7.97;;;4.20;;
11034;SDS011;5571;48.110;-1.706;2023-07-20T03:37:09;6.88;;;3.58;;
11034;SDS011;5571;48.110;-1.706;2023-07-20T03:39:34;5.95;;;3.95;;
11034;SDS011;5571;48.110;-1.706;2023-07-20T03:42:00;7.75;;;3.70;;
11034;SDS011;5571;48.110;-1.706;2023-07-20T03:44:26;6.30;;;4.00;;
11034;SDS011;5571;48.110;-1.706;2023-07-20T03:46:52;7.85;;;4.38;;
11034;SDS011;5571;48.110;-1.706;2023-07-20T03:49:17;7.47;;;3.90;;
11034;SDS011;5571;48.110;-1.706;2023-07-20T03:51:43;5.63;;;3.83;;
11034;SDS011;5571;48.110;-1.706;2023-07-20T03:54:08;9.07;;;4.63;;
11034;SDS011;5571;48.110;-1.706;2023-07-20T03:56:34;10.00;;;4.50;;
11034;SDS011;5571;48.110;-1.706;2023-07-20T03:59:00;8.57;;;4.63;;
11034;SDS011;5571;48.110;-1.706;2023-07-20T04:01:26;10.80;;;5.20;;
11034;SDS011;5571;48.110;-1.706;2023-07-20T04:03:52;9.32;;;4.68;;
11034;SDS011;5571;48.110;-1.706;2023-07-20T04:06:17;7.77;;;4.57;;
11034;SDS011;5571;48.110;-1.706;2023-07-20T04:08:44;7.87;;;4.70;;
11034;SDS011;5571;48.110;-1.706;2023-07-20T04:11:09;10.23;;;4.73;;
11034;SDS011;5571;48.110;-1.706;2023-07-20T04:13:35;11.30;;;4.73;;
11034;SDS011;5571;48.110;-1.706;2023-07-20T04:16:01;10.90;;;5.37;;
11034;SDS011;5571;48.110;-1.706;2023-07-20T04:18:27;6.97;;;4.72;;
11034;SDS011;5571;48.110;-1.706;2023-07-20T04:20:53;6.13;;;4.85;;
11034;SDS011;5571;48.110;-1.706;2023-07-20T04:23:18;10.90;;;4.90;;
11034;SDS011;5571;48.110;-1.706;2023-07-20T04:25:44;7.03;;;4.57;;
11034;SDS011;5571;48.110;-1.706;2023-07-20T04:28:10;7.00;;;4.40;;
11034;SDS011;5571;48.110;-1.706;2023-07-20T04:30:36;6.23;;;4.57;;
11034;SDS011;5571;48.110;-1.706;2023-07-20T04:33:02;10.23;;;5.00;;
11034;SDS011;5571;48.110;-1.706;2023-07-20T04:38:15;36.57;;;24.67;;
11034;SDS011;5571;48.110;-1.706;2023-07-20T04:40:42;17.77;;;10.37;;
11034;SDS011;5571;48.110;-1.706;2023-07-20T04:43:11;13.23;;;10.40;;
11034;SDS011;5571;48.110;-1.706;2023-07-20T04:45:37;14.03;;;9.80;;
11034;SDS011;5571;48.110;-1.706;2023-07-20T04:48:04;11.30;;;7.03;;
11034;SDS011;5571;48.110;-1.706;2023-07-20T04:50:33;6.67;;;5.10;;
11034;SDS011;5571;48.110;-1.706;2023-07-20T04:52:59;10.90;;;6.00;;
11034;SDS011;5571;48.110;-1.706;2023-07-20T04:55:25;7.87;;;5.80;;
11034;SDS011;5571;48.110;-1.706;2023-07-20T04:57:52;12.27;;;5.43;;
11034;SDS011;5571;48.110;-1.706;2023-07-20T05:00:17;6.93;;;4.80;;
11034;SDS011;5571;48.110;-1.706;2023-07-20T05:02:44;7.17;;;4.93;;
11034;SDS011;5571;48.110;-1.706;2023-07-20T05:05:09;7.60;;;5.00;;
11034;SDS011;5571;48.110;-1.706;2023-07-20T05:07:35;7.53;;;4.60;;
11034;SDS011;5571;48.110;-1.706;2023-07-20T05:10:00;9.30;;;5.33;;
11034;SDS011;5571;48.110;-1.706;2023-07-20T05:12:26;5.63;;;4.40;;
11034;SDS011;5571;48.110;-1.706;2023-07-20T05:14:52;10.70;;;5.17;;
11034;SDS011;5571;48.110;-1.706;2023-07-20T05:17:17;7.50;;;4.87;;
11034;SDS011;5571;48.110;-1.706;2023-07-20T05:19:43;6.60;;;4.80;;
11034;SDS011;5571;48.110;-1.706;2023-07-20T05:22:09;8.93;;;5.10;;
11034;SDS011;5571;48.110;-1.706;2023-07-20T05:24:35;10.43;;;5.13;;
11034;SDS011;5571;48.110;-1.706;2023-07-20T05:27:01;7.93;;;5.00;;
11034;SDS011;5571;48.110;-1.706;2023-07-20T05:29:27;8.33;;;4.93;;
11034;SDS011;5571;48.110;-1.706;2023-07-20T05:31:52;10.00;;;5.50;;
11034;SDS011;5571;48.110;-1.706;2023-07-20T05:34:18;11.70;;;5.57;;
11034;SDS011;5571;48.110;-1.706;2023-07-20T05:36:44;12.90;;;5.07;;
11034;SDS011;5571;48.110;-1.706;2023-07-20T05:39:09;15.57;;;5.57;;
11034;SDS011;5571;48.110;-1.706;2023-07-20T05:41:35;10.17;;;5.47;;
11034;SDS011;5571;48.110;-1.706;2023-07-20T05:44:00;9.00;;;5.33;;
11034;SDS011;5571;48.110;-1.706;2023-07-20T05:46:26;14.83;;;5.40;;
11034;SDS011;5571;48.110;-1.706;2023-07-20T05:48:52;8.60;;;5.07;;
11034;SDS011;5571;48.110;-1.706;2023-07-20T05:51:17;10.57;;;5.50;;
11034;SDS011;5571;48.110;-1.706;2023-07-20T05:53:43;9.60;;;5.23;;
11034;SDS011;5571;48.110;-1.706;2023-07-20T05:56:08;7.67;;;4.70;;
11034;SDS011;5571;48.110;-1.706;2023-07-20T05:58:37;10.95;;;5.07;;
11034;SDS011;5571;48.110;-1.706;2023-07-20T06:01:03;7.03;;;4.88;;
11034;SDS011;5571;48.110;-1.706;2023-07-20T06:03:31;8.65;;;4.90;;
11034;SDS011;5571;48.110;-1.706;2023-07-20T06:06:01;10.65;;;4.60;;
11034;SDS011;5571;48.110;-1.706;2023-07-20T06:08:30;7.78;;;4.75;;
11034;SDS011;5571;48.110;-1.706;2023-07-20T06:10:56;8.05;;;4.10;;
11034;SDS011;5571;48.110;-1.706;2023-07-20T06:13:22;9.18;;;4.13;;
11034;SDS011;5571;48.110;-1.706;2023-07-20T06:15:48;12.35;;;5.00;;
11034;SDS011;5571;48.110;-1.706;2023-07-20T06:18:14;8.35;;;4.40;;
11034;SDS011;5571;48.110;-1.706;2023-07-20T06:20:40;8.82;;;4.22;;
11034;SDS011;5571;48.110;-1.706;2023-07-20T06:23:05;9.85;;;4.63;;
11034;SDS011;5571;48.110;-1.706;2023-07-20T06:25:32;7.88;;;4.35;;
11034;SDS011;5571;48.110;-1.706;2023-07-20T06:27:57;8.10;;;4.68;;
11034;SDS011;5571;48.110;-1.706;2023-07-20T06:30:23;9.23;;;4.80;;
11034;SDS011;5571;48.110;-1.706;2023-07-20T06:32:49;8.40;;;4.00;;
11034;SDS011;5571;48.110;-1.706;2023-07-20T06:35:16;9.35;;;3.97;;
11034;SDS011;5571;48.110;-1.706;2023-07-20T06:37:42;11.90;;;4.35;;
11034;SDS011;5571;48.110;-1.706;2023-07-20T06:40:08;6.18;;;3.70;;
11034;SDS011;5571;48.110;-1.706;2023-07-20T06:42:34;6.70;;;3.50;;
11034;SDS011;5571;48.110;-1.706;2023-07-20T06:45:00;6.03;;;3.60;;
11034;SDS011;5571;48.110;-1.706;2023-07-20T06:47:26;6.43;;;3.95;;
11034;SDS011;5571;48.110;-1.706;2023-07-20T06:49:53;6.25;;;3.78;;
11034;SDS011;5571;48.110;-1.706;2023-07-20T06:52:19;7.22;;;3.30;;
11034;SDS011;5571;48.110;-1.706;2023-07-20T06:54:44;5.85;;;3.50;;
11034;SDS011;5571;48.110;-1.706;2023-07-20T06:57:10;5.50;;;3.08;;
11034;SDS011;5571;48.110;-1.706;2023-07-20T06:59:35;10.20;;;3.45;;
11034;SDS011;5571;48.110;-1.706;2023-07-20T07:02:01;7.47;;;3.38;;
11034;SDS011;5571;48.110;-1.706;2023-07-20T07:04:27;5.57;;;3.28;;
11034;SDS011;5571;48.110;-1.706;2023-07-20T07:06:53;7.25;;;3.53;;
11034;SDS011;5571;48.110;-1.706;2023-07-20T07:09:19;10.57;;;3.80;;
11034;SDS011;5571;48.110;-1.706;2023-07-20T07:11:45;7.53;;;3.58;;
11034;SDS011;5571;48.110;-1.706;2023-07-20T07:14:11;5.53;;;2.95;;
11034;SDS011;5571;48.110;-1.706;2023-07-20T07:16:37;8.32;;;3.10;;
11034;SDS011;5571;48.110;-1.706;2023-07-20T07:19:02;8.65;;;3.90;;
11034;SDS011;5571;48.110;-1.706;2023-07-20T07:21:28;6.13;;;3.10;;
11034;SDS011;5571;48.110;-1.706;2023-07-20T07:23:54;5.22;;;3.00;;
11034;SDS011;5571;48.110;-1.706;2023-07-20T07:26:22;8.48;;;3.22;;
11034;SDS011;5571;48.110;-1.706;2023-07-20T07:28:49;4.22;;;3.00;;
11034;SDS011;5571;48.110;-1.706;2023-07-20T07:31:14;6.38;;;3.42;;
11034;SDS011;5571;48.110;-1.706;2023-07-20T07:33:40;6.45;;;3.63;;
11034;SDS011;5571;48.110;-1.706;2023-07-20T07:36:05;6.60;;;2.92;;
11034;SDS011;5571;48.110;-1.706;2023-07-20T07:38:31;7.28;;;3.05;;
11034;SDS011;5571;48.110;-1.706;2023-07-20T07:40:57;4.95;;;3.03;;
11034;SDS011;5571;48.110;-1.706;2023-07-20T07:43:23;4.95;;;2.83;;
11034;SDS011;5571;48.110;-1.706;2023-07-20T07:45:49;7.05;;;3.20;;
11034;SDS011;5571;48.110;-1.706;2023-07-20T07:48:14;8.90;;;3.20;;
11034;SDS011;5571;48.110;-1.706;2023-07-20T07:50:40;5.13;;;2.83;;
11034;SDS011;5571;48.110;-1.706;2023-07-20T07:53:07;6.22;;;3.17;;
11034;SDS011;5571;48.110;-1.706;2023-07-20T07:55:33;5.82;;;2.90;;
11034;SDS011;5571;48.110;-1.706;2023-07-20T07:58:00;4.72;;;2.65;;
11034;SDS011;5571;48.110;-1.706;2023-07-20T08:00:26;6.55;;;2.70;;
11034;SDS011;5571;48.110;-1.706;2023-07-20T08:02:51;6.68;;;2.85;;
11034;SDS011;5571;48.110;-1.706;2023-07-20T08:05:17;7.25;;;2.90;;
11034;SDS011;5571;48.110;-1.706;2023-07-20T08:07:43;7.47;;;2.90;;
11034;SDS011;5571;48.110;-1.706;2023-07-20T08:10:08;8.60;;;3.30;;
11034;SDS011;5571;48.110;-1.706;2023-07-20T08:12:34;9.13;;;3.10;;
11034;SDS011;5571;48.110;-1.706;2023-07-20T08:15:00;9.32;;;3.38;;
11034;SDS011;5571;48.110;-1.706;2023-07-20T08:17:26;6.38;;;2.90;;
11034;SDS011;5571;48.110;-1.706;2023-07-20T08:19:51;10.15;;;2.78;;
11034;SDS011;5571;48.110;-1.706;2023-07-20T08:22:17;8.70;;;3.10;;
11034;SDS011;5571;48.110;-1.706;2023-07-20T08:24:43;6.38;;;2.95;;
11034;SDS011;5571;48.110;-1.706;2023-07-20T08:27:09;6.57;;;2.85;;
11034;SDS011;5571;48.110;-1.706;2023-07-20T08:29:35;7.43;;;2.90;;
11034;SDS011;5571;48.110;-1.706;2023-07-20T08:32:02;6.53;;;2.65;;
11034;SDS011;5571;48.110;-1.706;2023-07-20T08:34:29;4.45;;;2.75;;
11034;SDS011;5571;48.110;-1.706;2023-07-20T08:36:55;6.75;;;2.40;;
11034;SDS011;5571;48.110;-1.706;2023-07-20T08:39:21;5.28;;;2.25;;
11034;SDS011;5571;48.110;-1.706;2023-07-20T08:41:47;3.20;;;2.50;;
11034;SDS011;5571;48.110;-1.706;2023-07-20T08:44:14;3.90;;;2.70;;
11034;SDS011;5571;48.110;-1.706;2023-07-20T08:46:40;10.23;;;2.78;;
11034;SDS011;5571;48.110;-1.706;2023-07-20T08:49:07;7.10;;;2.67;;
11034;SDS011;5571;48.110;-1.706;2023-07-20T08:51:33;4.65;;;2.65;;
11034;SDS011;5571;48.110;-1.706;2023-07-20T08:54:00;4.03;;;2.53;;
11034;SDS011;5571;48.110;-1.706;2023-07-20T08:56:26;7.32;;;2.65;;
11034;SDS011;5571;48.110;-1.706;2023-07-20T08:58:55;3.72;;;2.38;;
11034;SDS011;5571;48.110;-1.706;2023-07-20T09:01:22;4.43;;;2.42;;
11034;SDS011;5571;48.110;-1.706;2023-07-20T09:03:48;4.53;;;2.33;;
11034;SDS011;5571;48.110;-1.706;2023-07-20T09:06:15;3.00;;;2.33;;
11034;SDS011;5571;48.110;-1.706;2023-07-20T09:08:41;4.18;;;2.55;;
11034;SDS011;5571;48.110;-1.706;2023-07-20T09:11:07;4.25;;;2.22;;
11034;SDS011;5571;48.110;-1.706;2023-07-20T09:13:40;6.63;;;2.35;;
11034;SDS011;5571;48.110;-1.706;2023-07-20T09:16:06;8.48;;;2.42;;
11034;SDS011;5571;48.110;-1.706;2023-07-20T09:18:32;4.88;;;2.40;;
11034;SDS011;5571;48.110;-1.706;2023-07-20T09:21:02;7.30;;;2.53;;
11034;SDS011;5571;48.110;-1.706;2023-07-20T09:23:32;9.13;;;2.65;;
11034;SDS011;5571;48.110;-1.706;2023-07-20T09:25:59;5.28;;;2.53;;
11034;SDS011;5571;48.110;-1.706;2023-07-20T09:28:25;8.10;;;2.78;;
11034;SDS011;5571;48.110;-1.706;2023-07-20T09:30:51;5.18;;;2.70;;
11034;SDS011;5571;48.110;-1.706;2023-07-20T09:33:18;7.10;;;2.50;;
11034;SDS011;5571;48.110;-1.706;2023-07-20T09:35:46;8.57;;;2.90;;
11034;SDS011;5571;48.110;-1.706;2023-07-20T09:38:11;3.90;;;2.22;;
11034;SDS011;5571;48.110;-1.706;2023-07-20T09:40:39;4.45;;;2.25;;
11034;SDS011;5571;48.110;-1.706;2023-07-20T09:43:07;9.85;;;2.75;;
11034;SDS011;5571;48.110;-1.706;2023-07-20T09:45:34;5.63;;;2.38;;
11034;SDS011;5571;48.110;-1.706;2023-07-20T09:48:04;5.30;;;1.88;;
11034;SDS011;5571;48.110;-1.706;2023-07-20T09:50:31;6.22;;;2.30;;
11034;SDS011;5571;48.110;-1.706;2023-07-20T09:53:17;6.82;;;2.28;;
11034;SDS011;5571;48.110;-1.706;2023-07-20T09:55:44;7.57;;;2.20;;
11034;SDS011;5571;48.110;-1.706;2023-07-20T09:58:11;3.10;;;1.90;;
11034;SDS011;5571;48.110;-1.706;2023-07-20T10:00:37;5.32;;;2.30;;
11034;SDS011;5571;48.110;-1.706;2023-07-20T10:03:04;6.38;;;2.20;;
11034;SDS011;5571;48.110;-1.706;2023-07-20T10:05:35;9.40;;;2.70;;
11034;SDS011;5571;48.110;-1.706;2023-07-20T10:08:04;5.88;;;2.00;;
11034;SDS011;5571;48.110;-1.706;2023-07-20T10:10:33;2.75;;;2.00;;
11034;SDS011;5571;48.110;-1.706;2023-07-20T10:13:01;4.50;;;1.95;;
11034;SDS011;5571;48.110;-1.706;2023-07-20T10:15:29;3.65;;;2.00;;
11034;SDS011;5571;48.110;-1.706;2023-07-20T10:20:46;4.43;;;2.28;;
11034;SDS011;5571;48.110;-1.706;2023-07-20T10:23:14;4.85;;;2.22;;
11034;SDS011;5571;48.110;-1.706;2023-07-20T10:25:40;5.07;;;2.13;;
11034;SDS011;5571;48.110;-1.706;2023-07-20T10:28:07;3.40;;;1.95;;
11034;SDS011;5571;48.110;-1.706;2023-07-20T10:30:35;4.20;;;2.10;;
11034;SDS011;5571;48.110;-1.706;2023-07-20T10:33:02;3.75;;;1.80;;
11034;SDS011;5571;48.110;-1.706;2023-07-20T10:35:29;4.68;;;1.88;;
11034;SDS011;5571;48.110;-1.706;2023-07-20T10:38:00;5.50;;;1.80;;
11034;SDS011;5571;48.110;-1.706;2023-07-20T10:40:30;5.90;;;1.52;;
11034;SDS011;5571;48.110;-1.706;2023-07-20T10:42:58;6.13;;;2.83;;
11034;SDS011;5571;48.110;-1.706;2023-07-20T10:45:41;3.63;;;2.20;;
11034;SDS011;5571;48.110;-1.706;2023-07-20T10:50:48;6.88;;;1.98;;
11034;SDS011;5571;48.110;-1.706;2023-07-20T10:53:36;6.32;;;1.92;;
11034;SDS011;5571;48.110;-1.706;2023-07-20T10:56:15;2.42;;;1.50;;
11034;SDS011;5571;48.110;-1.706;2023-07-20T10:59:01;4.55;;;1.90;;
11034;SDS011;5571;48.110;-1.706;2023-07-20T11:02:02;2.15;;;1.73;;
11034;SDS011;5571;48.110;-1.706;2023-07-20T11:04:41;6.00;;;1.88;;
11034;SDS011;5571;48.110;-1.706;2023-07-20T11:07:06;2.95;;;1.90;;
11034;SDS011;5571;48.110;-1.706;2023-07-20T11:09:36;4.10;;;2.00;;
11034;SDS011;5571;48.110;-1.706;2023-07-20T11:12:13;3.78;;;1.88;;
11034;SDS011;5571;48.110;-1.706;2023-07-20T11:14:41;3.38;;;1.73;;
11034;SDS011;5571;48.110;-1.706;2023-07-20T11:17:11;2.67;;;2.03;;
11034;SDS011;5571;48.110;-1.706;2023-07-20T11:19:38;12.43;;;2.03;;
11034;SDS011;5571;48.110;-1.706;2023-07-20T11:22:05;3.63;;;1.88;;
11034;SDS011;5571;48.110;-1.706;2023-07-20T11:24:37;4.43;;;1.80;;
11034;SDS011;5571;48.110;-1.706;2023-07-20T11:27:04;6.82;;;2.53;;
11034;SDS011;5571;48.110;-1.706;2023-07-20T11:29:30;3.10;;;2.17;;
11034;SDS011;5571;48.110;-1.706;2023-07-20T11:31:56;3.28;;;1.70;;
11034;SDS011;5571;48.110;-1.706;2023-07-20T11:34:22;3.90;;;1.65;;
11034;SDS011;5571;48.110;-1.706;2023-07-20T11:36:48;4.47;;;1.63;;
11034;SDS011;5571;48.110;-1.706;2023-07-20T11:39:18;5.35;;;1.92;;
11034;SDS011;5571;48.110;-1.706;2023-07-20T11:41:46;5.32;;;1.90;;
11034;SDS011;5571;48.110;-1.706;2023-07-20T11:44:23;3.83;;;1.88;;
11034;SDS011;5571;48.110;-1.706;2023-07-20T11:47:08;3.08;;;1.77;;
11034;SDS011;5571;48.110;-1.706;2023-07-20T11:49:41;4.70;;;1.60;;
11034;SDS011;5571;48.110;-1.706;2023-07-20T11:52:10;3.22;;;1.77;;
11034;SDS011;5571;48.110;-1.706;2023-07-20T11:54:39;6.43;;;1.80;;
11034;SDS011;5571;48.110;-1.706;2023-07-20T11:57:06;3.03;;;1.50;;
11034;SDS011;5571;48.110;-1.706;2023-07-20T11:59:32;4.78;;;1.80;;
11034;SDS011;5571;48.110;-1.706;2023-07-20T12:01:58;4.68;;;1.80;;
11034;SDS011;5571;48.110;-1.706;2023-07-20T12:04:27;3.75;;;1.63;;
11034;SDS011;5571;48.110;-1.706;2023-07-20T12:06:53;4.05;;;1.48;;
11034;SDS011;5571;48.110;-1.706;2023-07-20T12:09:20;3.00;;;1.50;;
11034;SDS011;5571;48.110;-1.706;2023-07-20T12:11:48;2.50;;;1.58;;
11034;SDS011;5571;48.110;-1.706;2023-07-20T12:14:14;4.53;;;1.48;;
11034;SDS011;5571;48.110;-1.706;2023-07-20T12:16:40;3.75;;;1.63;;
11034;SDS011;5571;48.110;-1.706;2023-07-20T12:19:07;3.55;;;1.60;;
11034;SDS011;5571;48.110;-1.706;2023-07-20T12:21:34;2.38;;;1.58;;
11034;SDS011;5571;48.110;-1.706;2023-07-20T12:24:05;2.92;;;1.85;;
11034;SDS011;5571;48.110;-1.706;2023-07-20T12:26:32;5.22;;;2.00;;
11034;SDS011;5571;48.110;-1.706;2023-07-20T12:28:58;3.00;;;1.60;;
11034;SDS011;5571;48.110;-1.706;2023-07-20T12:31:25;3.97;;;1.73;;
11034;SDS011;5571;48.110;-1.706;2023-07-20T12:33:52;2.33;;;1.38;;
11034;SDS011;5571;48.110;-1.706;2023-07-20T12:36:20;2.88;;;1.67;;
11034;SDS011;5571;48.110;-1.706;2023-07-20T12:38:46;2.25;;;1.63;;
11034;SDS011;5571;48.110;-1.706;2023-07-20T12:41:12;2.17;;;1.25;;
11034;SDS011;5571;48.110;-1.706;2023-07-20T12:43:38;3.67;;;1.85;;
11034;SDS011;5571;48.110;-1.706;2023-07-20T12:46:05;2.05;;;1.35;;
11034;SDS011;5571;48.110;-1.706;2023-07-20T12:48:31;2.33;;;1.40;;
11034;SDS011;5571;48.110;-1.706;2023-07-20T12:50:57;2.45;;;1.60;;
11034;SDS011;5571;48.110;-1.706;2023-07-20T12:53:23;4.82;;;1.52;;
11034;SDS011;5571;48.110;-1.706;2023-07-20T12:55:48;4.05;;;1.52;;
11034;SDS011;5571;48.110;-1.706;2023-07-20T12:58:14;4.05;;;1.40;;
11034;SDS011;5571;48.110;-1.706;2023-07-20T13:00:40;5.53;;;1.60;;
11034;SDS011;5571;48.110;-1.706;2023-07-20T13:03:06;3.80;;;1.42;;
11034;SDS011;5571;48.110;-1.706;2023-07-20T13:05:33;1.77;;;1.45;;
11034;SDS011;5571;48.110;-1.706;2023-07-20T13:08:00;3.10;;;1.50;;
11034;SDS011;5571;48.110;-1.706;2023-07-20T13:10:26;4.72;;;1.38;;
11034;SDS011;5571;48.110;-1.706;2023-07-20T13:12:52;1.27;;;1.17;;
11034;SDS011;5571;48.110;-1.706;2023-07-20T13:15:17;1.58;;;1.30;;
11034;SDS011;5571;48.110;-1.706;2023-07-20T13:17:43;4.72;;;1.75;;
11034;SDS011;5571;48.110;-1.706;2023-07-20T13:20:10;3.55;;;1.38;;
11034;SDS011;5571;48.110;-1.706;2023-07-20T13:22:38;2.38;;;1.38;;
11034;SDS011;5571;48.110;-1.706;2023-07-20T13:25:05;2.90;;;1.40;;
11034;SDS011;5571;48.110;-1.706;2023-07-20T13:27:32;1.63;;;1.30;;
11034;SDS011;5571;48.110;-1.706;2023-07-20T13:29:58;1.73;;;1.50;;
11034;SDS011;5571;48.110;-1.706;2023-07-20T13:32:25;3.88;;;1.40;;
11034;SDS011;5571;48.110;-1.706;2023-07-20T13:34:51;4.28;;;1.38;;
11034;SDS011;5571;48.110;-1.706;2023-07-20T13:37:17;1.40;;;1.30;;
11034;SDS011;5571;48.110;-1.706;2023-07-20T13:39:43;2.65;;;1.55;;
11034;SDS011;5571;48.110;-1.706;2023-07-20T13:42:08;2.33;;;1.58;;
11034;SDS011;5571;48.110;-1.706;2023-07-20T13:44:35;2.40;;;1.50;;
11034;SDS011;5571;48.110;-1.706;2023-07-20T13:47:02;2.15;;;1.55;;
11034;SDS011;5571;48.110;-1.706;2023-07-20T13:49:30;1.45;;;1.35;;
11034;SDS011;5571;48.110;-1.706;2023-07-20T13:51:56;2.00;;;1.60;;
11034;SDS011;5571;48.110;-1.706;2023-07-20T13:54:22;2.50;;;1.58;;
11034;SDS011;5571;48.110;-1.706;2023-07-20T13:56:48;3.35;;;1.27;;
11034;SDS011;5571;48.110;-1.706;2023-07-20T13:59:14;3.15;;;1.67;;
11034;SDS011;5571;48.110;-1.706;2023-07-20T14:01:39;1.75;;;1.52;;
11034;SDS011;5571;48.110;-1.706;2023-07-20T14:04:05;1.40;;;1.30;;
11034;SDS011;5571;48.110;-1.706;2023-07-20T14:06:31;3.83;;;1.45;;
11034;SDS011;5571;48.110;-1.706;2023-07-20T14:08:58;2.17;;;1.60;;
11034;SDS011;5571;48.110;-1.706;2023-07-20T14:11:24;4.20;;;1.50;;
11034;SDS011;5571;48.110;-1.706;2023-07-20T14:13:51;3.47;;;1.42;;
11034;SDS011;5571;48.110;-1.706;2023-07-20T14:16:20;2.78;;;1.55;;
11034;SDS011;5571;48.110;-1.706;2023-07-20T14:18:46;3.30;;;1.38;;
11034;SDS011;5571;48.110;-1.706;2023-07-20T14:21:13;3.50;;;1.55;;
11034;SDS011;5571;48.110;-1.706;2023-07-20T14:23:39;3.97;;;1.60;;
11034;SDS011;5571;48.110;-1.706;2023-07-20T14:26:05;3.22;;;1.77;;
11034;SDS011;5571;48.110;-1.706;2023-07-20T14:28:32;6.80;;;1.90;;
11034;SDS011;5571;48.110;-1.706;2023-07-20T14:30:58;3.53;;;1.80;;
11034;SDS011;5571;48.110;-1.706;2023-07-20T14:33:23;3.67;;;2.85;;
11034;SDS011;5571;48.110;-1.706;2023-07-20T14:35:49;4.60;;;1.73;;
11034;SDS011;5571;48.110;-1.706;2023-07-20T14:38:15;2.85;;;1.60;;
11034;SDS011;5571;48.110;-1.706;2023-07-20T14:40:41;2.30;;;1.15;;
11034;SDS011;5571;48.110;-1.706;2023-07-20T14:43:06;6.00;;;1.75;;
11034;SDS011;5571;48.110;-1.706;2023-07-20T14:45:33;4.47;;;1.80;;
11034;SDS011;5571;48.110;-1.706;2023-07-20T14:47:58;3.72;;;1.45;;
11034;SDS011;5571;48.110;-1.706;2023-07-20T14:50:24;4.30;;;1.55;;
11034;SDS011;5571;48.110;-1.706;2023-07-20T14:52:50;2.42;;;1.70;;
11034;SDS011;5571;48.110;-1.706;2023-07-20T14:55:16;5.80;;;1.70;;
11034;SDS011;5571;48.110;-1.706;2023-07-20T14:57:42;4.57;;;1.63;;
11034;SDS011;5571;48.110;-1.706;2023-07-20T15:00:08;1.73;;;1.50;;